CheckWX is a tool to help pilots better visualize weather data.  It is not intended as a substitute for an official pre-flight weather briefing.

02:53:54 UTC

KOLM METAR
Olympia Regional Airport
Olympia, Washington, USA
Current

60 mins ago

KOLM 260154Z 01006KT 10SM FEW050 23/11 A3017 RMK AO2 SLP214 T02330106 $
Observed
Aug-26 @ 01:54 UTC
Wind
  • 010° at 6 KTS
Visibility
10 SM
Flight Rules
VFR
Cloud Levels
  • Few at 5,000' AGL
Temperature
23°C / 73°F
Dewpoint
11°C / 52°F
Humidity
47%
Altimeter
30.17" Hg
Pressure
1021.72 hPa
Previous

2 hours ago

KOLM 260054Z 00000KT 10SM SCT050 23/10 A3017 RMK AO2 SLP214 T02330100 $
Observed
Aug-26 @ 00:54 UTC
Visibility
10 SM
Flight Rules
VFR
Cloud Levels
  • Scattered at 5,000' AGL
Temperature
23°C / 73°F
Dewpoint
10°C / 50°F
Humidity
44%
Altimeter
30.17" Hg
Pressure
1021.72 hPa
Previous

3 hours ago

KOLM 252354Z 00000KT 10SM SCT050 23/10 A3018 RMK AO2 SLP219 T02280100 10239 20156 58007 $
Observed
Aug-25 @ 23:54 UTC
Visibility
10 SM
Flight Rules
VFR
Cloud Levels
  • Scattered at 5,000' AGL
Temperature
23°C / 73°F
Dewpoint
10°C / 50°F
Humidity
44%
Altimeter
30.18" Hg
Pressure
1022.02 hPa